Česky Dansk Deutsch English Español Suomi Français Magyar Italiano Nederlands norsk Polski Português svenska Türkçe

 

Het Weer

Bruxelles National (België)

01:20, 23 augustus 2016 (GMT)

NWNNE
WE
SWSSE
Home            
Bruxelles National Melsbroek Bel-Afb Beauvechain Goetsenhoven Antwerpen / Deurne Schaffen Sint-Truiden Brasschaat Charleroi / Gosselies Munte Gent / Industrie-Zone Chievres Woensdrecht Weelde Military Genk Bierset Kleine Brogel Florennes Gilze-Rijen Eindhoven Maastricht Airport Zuid Limburg Geilenkirchen Lille

Om een weerknop op uw website of weblog te plaatsen, copieer onderstaande code en plak die in uw pagina. In het eerste vakje staat HTML-code, in het tweede vakje UBB-code.


Add to Google

Details

Wind speed:1 bf, 2 kn, 1.0 m/s, 2.3 miles/h, 3.7 km/h
Wind direction:Variable
Widzialność pozioma:Więcej niż 10000 m, 10 km, 32800 ft, 6.2 miles
Clouds:CAVOC
Temperatura:15°C, 59°F
Punkt rosy:13°C, 55°F
Ciśnienie QHN:1026 hPa, 769.6 mmHg, 30.30 inHg, 1.013 atm
Wilgotność względna:87.8 %
METAR:EBBR 230120Z VRB02KT CAVOK 15/13 Q1026 NOSIG

Snelkoppelingen

Actuele weersinformatie van de hele wereld. Voeg locaties toe met het plus (+) symbool. Deze snelkoppelingen kunnen worden toegevoegd aan Google.

Lid van de Technetium groep

website free tracking
StatCounter NetStat W3C Validator

20-10-2020 12:06:58
astro.technetium.be money.technetium.be phote.technetium.be tafeltennistafel.technetium.be www.ligfiets.net